Time;durP1;ratioP1;P1;durP2;ratioP2;P2;SDS_P1;SDS_P2;PMS_P1;PMS_P2;Temp;Humidity;BMP_temperature;BMP_pressure;BME280_temperature;BME280_humidity;BME280_pressure;Samples;Min_cycle;Max_cycle;Signal;HPM_P1;HPM_P2
2022/06/06 00:01:42;;;;;;;11.27;8.68;;;16.10;99.90;;;;;;5051540;28;20033;-69
2022/06/06 00:04:08;;;;;;;9.20;8.30;;;16.10;99.90;;;;;;5051730;28;20079;-69
2022/06/06 00:06:34;;;;;;;8.32;7.53;;;16.00;99.90;;;;;;5051266;28;20075;-68
2022/06/06 00:08:59;;;;;;;7.75;6.95;;;16.00;99.90;;;;;;5051510;28;20041;-69
2022/06/06 00:11:25;;;;;;;8.48;7.10;;;16.00;99.90;;;;;;5051487;28;20045;-69
2022/06/06 00:13:51;;;;;;;7.50;6.80;;;16.00;99.90;;;;;;5051341;28;20037;-69
2022/06/06 00:16:17;;;;;;;7.45;6.55;;;16.00;99.90;;;;;;5051443;28;20113;-69
2022/06/06 00:18:43;;;;;;;7.38;6.57;;;15.90;99.90;;;;;;5051579;28;20083;-69
2022/06/06 00:21:11;;;;;;;8.80;7.70;;;15.90;99.90;;;;;;5051349;28;20055;-69
2022/06/06 00:23:38;;;;;;;7.93;7.13;;;15.90;99.90;;;;;;5051340;28;20049;-69
2022/06/06 00:26:08;;;;;;;8.27;7.47;;;15.90;99.90;;;;;;5051313;28;20069;-69
2022/06/06 00:28:35;;;;;;;8.23;7.43;;;15.90;99.90;;;;;;5051192;28;20041;-69
2022/06/06 00:34:48;;;;;;;8.05;7.20;;;15.90;99.90;;;;;;5051521;28;20037;-69
2022/06/06 00:36:33;;;;;;;9.43;8.52;;;15.80;99.90;;;;;;5050990;28;20497;-69
2022/06/06 00:38:58;;;;;;;8.75;7.85;;;15.80;99.90;;;;;;5051145;28;20048;-69
2022/06/06 00:41:24;;;;;;;11.18;7.82;;;15.80;99.90;;;;;;5051427;28;20037;-69
2022/06/06 00:44:11;;;;;;;8.85;7.72;;;15.80;99.90;;;;;;5051128;28;20460;-69
2022/06/06 00:46:42;;;;;;;11.75;7.63;;;15.80;99.90;;;;;;5051112;28;20566;-69
2022/06/06 00:49:14;;;;;;;8.88;6.53;;;15.80;99.90;;;;;;5054386;28;20123;-68
2022/06/06 00:51:40;;;;;;;8.07;6.22;;;15.80;99.90;;;;;;5054731;28;20049;-68
2022/06/06 00:54:06;;;;;;;8.55;5.22;;;15.80;99.90;;;;;;5054654;28;20052;-68
2022/06/06 00:56:46;;;;;;;7.88;5.05;;;15.70;99.90;;;;;;5037917;28;20043;-68
2022/06/06 00:59:16;;;;;;;5.07;4.50;;;15.80;99.90;;;;;;5054739;28;20049;-68
2022/06/06 01:01:43;;;;;;;7.35;4.95;;;15.70;99.90;;;;;;5054538;28;20048;-68
2022/06/06 01:04:12;;;;;;;4.63;4.00;;;15.70;99.90;;;;;;5054485;28;20041;-68
2022/06/06 01:06:41;;;;;;;6.20;4.68;;;15.60;99.90;;;;;;5054204;28;20497;-68
2022/06/06 01:09:07;;;;;;;7.28;4.20;;;15.60;99.90;;;;;;5054429;28;20072;-68
2022/06/06 01:11:41;;;;;;;5.72;3.58;;;15.60;99.90;;;;;;5054594;28;20067;-68
2022/06/06 01:14:10;;;;;;;5.63;4.28;;;15.60;99.90;;;;;;5054353;28;20080;-68
2022/06/06 01:16:43;;;;;;;4.68;4.10;;;15.60;99.90;;;;;;5054417;28;20045;-68
2022/06/06 01:19:22;;;;;;;;;;;15.60;99.90;;;;;;5054545;28;20626;-68
2022/06/06 01:22:25;;;;;;;4.45;3.42;;;15.60;99.90;;;;;;5054178;28;19925;-69
2022/06/06 01:25:20;;;;;;;4.35;3.42;;;15.50;99.90;;;;;;5054051;28;20037;-69
2022/06/06 01:27:58;;;;;;;5.20;3.88;;;15.50;99.90;;;;;;5053924;28;20029;-69
2022/06/06 01:30:29;;;;;;;4.82;3.53;;;15.50;99.90;;;;;;5054275;28;20076;-69
2022/06/06 01:33:01;;;;;;;5.72;3.97;;;15.40;99.90;;;;;;5053971;28;20040;-69
2022/06/06 01:35:33;;;;;;;5.22;3.85;;;15.50;99.90;;;;;;5053957;28;20045;-68
2022/06/06 01:38:00;;;;;;;6.10;4.88;;;15.40;99.90;;;;;;5053763;28;20496;-68
2022/06/06 01:40:44;;;;;;;7.75;4.30;;;15.40;99.90;;;;;;5053729;28;20049;-68
2022/06/06 01:43:20;;;;;;;6.60;5.20;;;15.40;99.90;;;;;;5037161;28;20048;-68
2022/06/06 01:46:05;;;;;;;5.18;4.60;;;15.40;99.90;;;;;;5037037;28;20033;-68
2022/06/06 01:48:35;;;;;;;5.95;5.28;;;15.40;99.90;;;;;;5053545;28;20420;-68
2022/06/06 01:51:10;;;;;;;6.13;4.80;;;15.40;99.90;;;;;;5053552;28;20504;-68
2022/06/06 01:53:38;;;;;;;6.93;5.53;;;15.40;99.90;;;;;;5053525;28;20052;-68
2022/06/06 01:56:06;;;;;;;6.63;5.80;;;15.30;99.90;;;;;;5053445;28;20452;-68
2022/06/06 01:58:32;;;;;;;8.43;6.28;;;15.30;99.90;;;;;;5052950;28;20520;-69
2022/06/06 02:00:58;;;;;;;7.25;6.43;;;15.30;99.90;;;;;;5052794;28;20080;-69
2022/06/06 02:03:24;;;;;;;9.38;6.53;;;15.30;99.90;;;;;;5053617;28;20039;-69
2022/06/06 02:05:49;;;;;;;6.93;6.00;;;15.30;99.90;;;;;;5054545;28;20397;-68
2022/06/06 02:08:16;;;;;;;8.98;7.45;;;15.30;99.90;;;;;;5054363;28;20087;-68
2022/06/06 02:10:42;;;;;;;8.40;7.13;;;15.30;99.90;;;;;;5053197;28;20041;-69
2022/06/06 02:13:09;;;;;;;10.50;7.95;;;15.20;99.90;;;;;;5053383;28;20064;-68
2022/06/06 02:15:34;;;;;;;8.23;6.95;;;15.20;99.90;;;;;;5054334;28;20086;-68
2022/06/06 02:18:00;;;;;;;8.80;7.90;;;15.20;99.90;;;;;;5053321;28;20041;-68
2022/06/06 02:20:28;;;;;;;10.52;7.80;;;15.20;99.90;;;;;;5053026;28;20456;-69
2022/06/06 02:22:54;;;;;;;8.70;7.38;;;15.20;99.90;;;;;;5053237;28;20063;-68
2022/06/06 02:25:21;;;;;;;9.80;8.63;;;15.20;99.90;;;;;;5053142;28;20037;-68
2022/06/06 02:27:46;;;;;;;10.05;8.02;;;15.20;99.90;;;;;;5052803;28;20037;-68
2022/06/06 02:30:18;;;;;;;11.77;8.45;;;15.20;99.90;;;;;;5053373;28;20093;-68
2022/06/06 02:32:44;;;;;;;11.47;8.97;;;15.20;99.90;;;;;;5052765;28;20041;-68
2022/06/06 02:35:13;;;;;;;10.00;7.75;;;15.10;99.90;;;;;;5052718;28;20051;-68
2022/06/06 02:37:39;;;;;;;9.35;8.38;;;15.10;99.90;;;;;;5036176;28;20064;-68
2022/06/06 02:40:07;;;;;;;8.45;7.30;;;15.10;99.90;;;;;;5052677;28;20041;-68
2022/06/06 02:42:33;;;;;;;6.90;6.20;;;15.10;99.90;;;;;;5052856;28;20041;-68
2022/06/06 02:44:58;;;;;;;9.18;7.50;;;15.10;99.90;;;;;;5052524;28;20394;-68
2022/06/06 02:47:24;;;;;;;7.55;6.55;;;15.10;99.90;;;;;;5052418;28;20040;-68
2022/06/06 02:49:49;;;;;;;8.75;6.75;;;15.10;99.90;;;;;;5052690;28;20041;-68
2022/06/06 02:52:15;;;;;;;6.80;5.68;;;15.10;99.90;;;;;;5052380;28;20043;-68
2022/06/06 02:54:41;;;;;;;8.48;6.78;;;15.10;99.90;;;;;;5052356;28;20051;-68
2022/06/06 02:57:06;;;;;;;10.18;7.07;;;15.10;99.90;;;;;;5052495;28;20037;-68
2022/06/06 02:59:34;;;;;;;7.78;6.15;;;15.10;99.90;;;;;;5052432;28;20448;-68
2022/06/06 03:02:02;;;;;;;7.50;5.72;;;15.10;99.90;;;;;;5052512;28;20064;-68
2022/06/06 03:04:28;;;;;;;8.13;6.78;;;15.10;99.90;;;;;;5052232;28;20508;-68
2022/06/06 03:07:27;;;;;;;8.25;7.40;;;15.10;99.90;;;;;;5051967;28;20489;-68
2022/06/06 03:10:25;;;;;;;7.93;6.82;;;15.10;99.90;;;;;;5052030;28;20044;-68
2022/06/06 03:13:19;;;;;;;9.93;7.78;;;15.10;99.90;;;;;;5052081;28;20055;-68
2022/06/06 03:20:46;;;;;;;12.45;10.32;;;15.00;99.90;;;;;;5052372;28;20052;-68
2022/06/06 03:21:43;;;;;;;18.15;12.88;;;15.00;99.90;;;;;;5051809;28;20425;-68
2022/06/06 03:24:31;;;;;;;21.45;14.75;;;14.90;99.90;;;;;;5052182;28;20401;-68
2022/06/06 03:27:15;;;;;;;20.65;13.77;;;14.90;99.90;;;;;;5051851;28;20053;-68
2022/06/06 03:29:50;;;;;;;17.92;13.60;;;14.80;99.90;;;;;;5052110;28;20037;-68
2022/06/06 03:32:23;;;;;;;21.00;13.57;;;14.80;99.90;;;;;;5051896;28;20091;-68
2022/06/06 03:34:57;;;;;;;21.13;14.27;;;14.70;99.90;;;;;;5035523;28;20059;-68
2022/06/06 03:37:41;;;;;;;17.90;12.35;;;14.70;99.90;;;;;;5052264;28;20500;-68
2022/06/06 03:40:30;;;;;;;21.67;14.63;;;14.70;99.90;;;;;;5051698;28;20102;-68
2022/06/06 03:43:10;;;;;;;24.90;15.02;;;14.70;99.90;;;;;;5051790;28;20071;-68
2022/06/06 03:45:43;;;;;;;16.67;11.25;;;14.70;99.90;;;;;;5051706;28;20494;-68
2022/06/06 03:48:41;;;;;;;16.60;11.18;;;14.70;99.90;;;;;;5051661;28;20033;-68
2022/06/06 03:51:14;;;;;;;15.30;11.50;;;14.70;99.90;;;;;;5051673;28;20456;-68
2022/06/06 03:54:05;;;;;;;20.77;12.95;;;14.60;99.90;;;;;;5051718;28;20572;-68
2022/06/06 03:57:01;;;;;;;17.40;12.57;;;14.60;99.90;;;;;;5051605;28;20536;-68
2022/06/06 03:59:29;;;;;;;20.50;12.32;;;14.60;99.90;;;;;;5051543;28;20124;-68
2022/06/06 04:01:59;;;;;;;18.67;12.52;;;14.50;99.90;;;;;;5051564;28;20068;-68
2022/06/06 04:04:28;;;;;;;14.38;8.55;;;14.50;99.90;;;;;;5051838;28;20123;-68
2022/06/06 04:06:57;;;;;;;11.93;7.40;;;14.50;99.90;;;;;;5052577;28;20072;-68
2022/06/06 04:09:23;;;;;;;8.75;6.40;;;14.50;99.90;;;;;;5052609;28;20110;-68
2022/06/06 04:12:01;;;;;;;10.07;6.78;;;14.40;99.90;;;;;;5053291;28;20136;-68
2022/06/06 04:14:36;;;;;;;8.95;6.60;;;14.40;99.90;;;;;;5053184;28;20045;-68
2022/06/06 04:17:23;;;;;;;9.48;5.90;;;14.30;99.90;;;;;;5051353;28;20040;-68
2022/06/06 04:20:19;;;;;;;10.27;6.18;;;14.40;99.90;;;;;;5051537;28;20045;-68
2022/06/06 04:23:05;;;;;;;10.05;5.95;;;14.40;99.90;;;;;;5036209;28;20379;-68
2022/06/06 04:25:36;;;;;;;11.43;6.78;;;14.30;99.90;;;;;;5055253;28;20049;-68
2022/06/06 04:28:28;;;;;;;11.98;8.13;;;14.30;99.90;;;;;;5055056;28;20544;-68
2022/06/06 04:31:24;;;;;;;15.13;8.38;;;14.30;99.90;;;;;;5055143;28;20053;-68
2022/06/06 04:34:10;;;;;;;17.70;10.85;;;14.30;99.90;;;;;;5055895;28;20067;-68
2022/06/06 04:37:07;;;;;;;18.63;13.20;;;14.30;99.90;;;;;;5054963;28;20124;-68
2022/06/06 04:40:05;;;;;;;22.42;14.63;;;14.30;99.90;;;;;;5028207;28;20084;-68
2022/06/06 04:42:43;;;;;;;19.48;14.20;;;14.30;99.90;;;;;;4971349;28;20497;-68
2022/06/06 04:45:25;;;;;;;19.20;14.40;;;14.30;99.90;;;;;;5055101;28;20106;-68
2022/06/06 04:47:54;;;;;;;22.73;16.10;;;14.30;99.90;;;;;;5054772;28;20048;-68
2022/06/06 04:50:21;;;;;;;25.27;17.25;;;14.20;99.90;;;;;;5054976;28;20415;-68
2022/06/06 04:52:52;;;;;;;22.08;16.50;;;14.20;99.90;;;;;;5054699;28;20056;-68
2022/06/06 04:55:19;;;;;;;23.20;17.15;;;14.20;99.90;;;;;;5054682;28;20056;-68
2022/06/06 04:57:49;;;;;;;23.80;19.08;;;14.30;99.90;;;;;;5054556;28;20386;-69
2022/06/06 05:00:15;;;;;;;24.85;18.67;;;14.30;99.90;;;;;;5054653;28;20052;-69
2022/06/06 05:02:42;;;;;;;28.05;19.33;;;14.20;99.90;;;;;;5056031;28;20040;-68
2022/06/06 05:05:09;;;;;;;29.83;19.95;;;14.20;99.90;;;;;;5054722;28;20479;-68
2022/06/06 05:07:41;;;;;;;27.40;18.48;;;14.20;99.90;;;;;;5054478;28;20489;-68
2022/06/06 05:10:41;;;;;;;26.23;17.88;;;14.30;99.90;;;;;;5054413;28;20041;-68
2022/06/06 05:13:29;;;;;;;27.80;18.17;;;14.30;99.90;;;;;;5054528;28;20044;-68
2022/06/06 05:16:10;;;;;;;24.80;17.13;;;14.20;99.90;;;;;;5054309;28;20053;-68
2022/06/06 05:19:20;;;;;;;29.35;17.13;;;14.30;99.90;;;;;;5055169;28;20032;-68
2022/06/06 05:22:05;;;;;;;19.98;13.82;;;14.30;99.90;;;;;;5054184;28;20473;-68
2022/06/06 05:25:04;;;;;;;20.98;14.02;;;14.30;99.90;;;;;;5054119;28;20127;-68
2022/06/06 05:27:48;;;;;;;21.05;12.75;;;14.30;99.90;;;;;;5054210;28;20063;-68
2022/06/06 05:30:39;;;;;;;20.63;11.55;;;14.30;99.90;;;;;;5054038;28;20040;-68
2022/06/06 05:33:22;;;;;;;16.42;11.40;;;14.40;99.90;;;;;;5052739;28;20138;-68
2022/06/06 05:35:53;;;;;;;17.67;10.68;;;14.30;99.90;;;;;;5054232;28;20512;-68
2022/06/06 05:38:37;;;;;;;18.52;11.13;;;14.30;99.90;;;;;;5053769;28;20457;-68
2022/06/06 05:41:15;;;;;;;21.30;10.77;;;14.30;99.90;;;;;;5053756;28;20041;-68
2022/06/06 05:43:51;;;;;;;15.38;10.10;;;14.30;99.90;;;;;;5053753;28;20493;-68
2022/06/06 05:46:32;;;;;;;13.32;9.48;;;14.40;99.90;;;;;;5053939;28;20052;-68
2022/06/06 05:49:14;;;;;;;15.77;10.25;;;14.40;99.90;;;;;;5053881;28;20107;-68
2022/06/06 05:52:02;;;;;;;13.93;9.77;;;14.30;99.90;;;;;;5053622;28;20124;-68
2022/06/06 05:54:40;;;;;;;15.20;9.45;;;14.40;99.90;;;;;;5053856;28;20120;-68
2022/06/06 05:57:20;;;;;;;11.45;8.50;;;14.40;99.90;;;;;;5053456;28;20397;-68
2022/06/06 05:59:55;;;;;;;11.15;8.60;;;14.50;99.90;;;;;;5054835;28;20045;-68
2022/06/06 06:02:54;;;;;;;13.10;8.68;;;14.50;99.90;;;;;;5053414;28;20040;-68
2022/06/06 06:05:25;;;;;;;10.95;8.18;;;14.50;99.90;;;;;;5053358;28;20069;-68
2022/06/06 06:08:13;;;;;;;12.38;8.52;;;14.50;99.90;;;;;;5052519;28;20043;-68
2022/06/06 06:11:39;;;;;;;12.23;9.32;;;14.50;99.90;;;;;;5052302;28;20456;-68
2022/06/06 06:14:24;;;;;;;12.95;7.90;;;14.50;99.90;;;;;;4976207;28;20110;-68
2022/06/06 06:16:56;;;;;;;14.57;8.60;;;14.50;99.90;;;;;;4992229;28;20042;-68
2022/06/06 06:19:29;;;;;;;12.70;8.48;;;14.50;99.90;;;;;;4976216;28;20058;-68
2022/06/06 06:21:57;;;;;;;12.98;8.75;;;14.50;99.90;;;;;;4975895;28;20049;-68
2022/06/06 06:24:30;;;;;;;12.23;8.30;;;14.50;99.90;;;;;;4976033;28;20132;-68
2022/06/06 06:26:56;;;;;;;;;;;14.50;99.90;;;;;;4976095;28;20039;-68
2022/06/06 06:29:22;;;;;;;13.32;8.90;;;14.50;99.90;;;;;;4975728;28;19917;-68
2022/06/06 06:31:58;;;;;;;14.60;9.30;;;14.50;99.90;;;;;;4975779;28;20486;-68
2022/06/06 06:34:29;;;;;;;14.98;9.55;;;14.50;99.90;;;;;;4975870;28;20046;-68
2022/06/06 06:37:06;;;;;;;16.27;11.07;;;14.50;99.90;;;;;;4975358;28;20038;-68
2022/06/06 06:39:44;;;;;;;19.55;12.15;;;14.50;99.90;;;;;;4975537;28;20058;-68
2022/06/06 06:42:34;;;;;;;16.92;11.18;;;14.50;99.90;;;;;;4975334;28;20181;-68
2022/06/06 06:45:08;;;;;;;16.30;10.82;;;14.60;99.90;;;;;;5029504;28;20053;-68
2022/06/06 06:47:35;;;;;;;17.48;10.73;;;14.80;99.90;;;;;;5051713;28;20043;-68
2022/06/06 06:50:13;;;;;;;16.85;9.30;;;14.90;99.90;;;;;;5051744;28;20052;-68
2022/06/06 06:52:46;;;;;;;13.15;8.68;;;15.10;99.90;;;;;;5052754;28;20080;-68
2022/06/06 06:55:33;;;;;;;13.32;8.57;;;15.30;99.90;;;;;;5051634;28;20048;-68
2022/06/06 06:58:11;;;;;;;11.95;7.80;;;15.30;99.90;;;;;;5051479;28;20460;-68
2022/06/06 07:00:48;;;;;;;12.60;7.45;;;15.30;99.90;;;;;;5035013;28;20405;-68
2022/06/06 07:09:05;;;;;;;12.20;6.25;;;15.50;99.90;;;;;;5090769;27;20386;-68
2022/06/06 07:11:52;;;;;;;9.65;5.60;;;15.60;99.90;;;;;;5089468;28;20454;-68
2022/06/06 07:14:43;;;;;;;9.68;5.78;;;15.60;99.90;;;;;;5089681;28;20131;-68
2022/06/06 07:17:11;;;;;;;7.93;5.10;;;15.50;99.90;;;;;;5089511;28;20062;-68
2022/06/06 07:19:46;;;;;;;8.85;5.38;;;15.60;99.90;;;;;;5089552;28;20104;-68
2022/06/06 07:22:15;;;;;;;8.85;5.00;;;15.70;99.90;;;;;;5089537;28;20032;-67
2022/06/06 07:24:42;;;;;;;7.35;5.05;;;15.80;99.90;;;;;;5089451;28;20032;-68
2022/06/06 07:27:10;;;;;;;6.50;4.30;;;16.00;99.90;;;;;;5089661;28;20033;-68
2022/06/06 07:29:36;;;;;;;6.88;4.50;;;16.10;99.90;;;;;;5089534;28;20106;-68
2022/06/06 07:32:30;;;;;;;9.02;4.68;;;16.10;99.90;;;;;;5089461;28;20493;-68
2022/06/06 07:35:08;;;;;;;8.90;4.80;;;16.10;99.90;;;;;;5089015;28;20039;-68
2022/06/06 07:37:56;;;;;;;6.93;4.97;;;16.00;99.90;;;;;;5088872;28;20123;-68
2022/06/06 07:40:24;;;;;;;7.80;5.00;;;16.00;99.90;;;;;;5088897;28;20066;-67
2022/06/06 07:43:16;;;;;;;7.32;5.05;;;16.10;99.90;;;;;;5088830;28;20044;-67
2022/06/06 07:45:46;;;;;;;9.20;5.40;;;16.20;99.90;;;;;;5088755;28;20048;-67
2022/06/06 07:48:18;;;;;;;8.88;5.72;;;16.20;99.90;;;;;;5071788;28;20040;-67
2022/06/06 07:51:06;;;;;;;10.32;6.82;;;16.30;99.90;;;;;;5088692;28;20533;-67
2022/06/06 07:54:29;;;;;;;10.30;6.18;;;16.40;99.90;;;;;;5088633;28;20045;-68
2022/06/06 07:57:04;;;;;;;9.35;6.30;;;16.50;99.90;;;;;;5050734;28;20048;-67
2022/06/06 07:59:46;;;;;;;10.40;6.50;;;16.70;99.90;;;;;;5034240;28;20068;-67
2022/06/06 08:02:42;;;;;;;10.07;6.55;;;16.70;99.90;;;;;;5050872;28;20576;-68
2022/06/06 08:05:16;;;;;;;11.18;7.30;;;16.60;99.90;;;;;;5033945;28;20123;-69
2022/06/06 08:08:15;;;;;;;14.50;8.13;;;16.50;99.90;;;;;;5050519;28;20049;-69
2022/06/06 08:10:47;;;;;;;13.88;7.55;;;16.40;99.90;;;;;;5050538;28;20040;-69
2022/06/06 08:13:26;;;;;;;11.43;7.38;;;16.20;99.90;;;;;;5051331;28;20036;-69
2022/06/06 08:15:57;;;;;;;13.48;7.80;;;16.20;99.90;;;;;;5050435;28;20049;-69
2022/06/06 08:19:04;;;;;;;13.27;7.78;;;16.20;99.90;;;;;;5049043;28;20064;-70
2022/06/06 08:21:40;;;;;;;12.15;7.68;;;16.30;99.90;;;;;;5013423;28;20049;-69
2022/06/06 08:24:10;;;;;;;12.93;6.75;;;16.50;99.90;;;;;;5037370;28;20083;-69
2022/06/06 08:26:38;;;;;;;13.43;7.25;;;16.90;99.90;;;;;;5038606;28;20044;-69
2022/06/06 08:29:09;;;;;;;12.38;6.57;;;17.20;99.90;;;;;;5074964;28;20421;-70
2022/06/06 08:31:35;;;;;;;8.85;4.57;;;17.40;99.90;;;;;;5074629;28;20093;-70
2022/06/06 08:34:01;;;;;;;6.90;3.70;;;17.30;99.90;;;;;;5074408;28;20036;-70
2022/06/06 08:36:57;;;;;;;8.07;3.80;;;17.00;99.90;;;;;;5074352;28;20042;-70
2022/06/06 08:39:51;;;;;;;5.10;3.30;;;16.70;99.90;;;;;;5074605;28;20048;-70
2022/06/06 08:42:28;;;;;;;8.07;3.70;;;16.40;99.90;;;;;;5074549;28;20101;-70
2022/06/06 08:45:44;;;;;;;5.82;3.40;;;16.30;99.90;;;;;;5074382;28;20404;-70
2022/06/06 08:48:52;;;;;;;11.35;3.88;;;16.50;99.90;;;;;;5036405;28;20102;-70
2022/06/06 08:51:31;;;;;;;9.43;3.78;;;16.90;99.90;;;;;;5074337;28;20044;-69
2022/06/06 08:54:15;;;;;;;8.00;3.60;;;17.20;99.90;;;;;;5074022;28;20492;-69
2022/06/06 08:57:00;;;;;;;7.05;3.45;;;17.60;99.90;;;;;;5073911;28;20044;-69
2022/06/06 08:59:45;;;;;;;10.32;3.40;;;17.60;99.90;;;;;;5073941;28;20040;-69
2022/06/06 09:02:29;;;;;;;5.82;2.95;;;17.50;99.90;;;;;;5057476;28;20044;-69
2022/06/06 09:05:22;;;;;;;7.32;2.53;;;17.40;99.90;;;;;;5057165;28;20045;-69
2022/06/06 09:08:29;;;;;;;8.18;2.35;;;17.20;99.90;;;;;;5073527;28;20047;-69
2022/06/06 09:10:55;;;;;;;9.68;2.47;;;16.90;99.90;;;;;;5073765;28;20465;-69
2022/06/06 09:13:36;;;;;;;6.45;1.88;;;16.70;99.90;;;;;;5073869;28;20044;-69
2022/06/06 09:16:27;;;;;;;5.85;1.85;;;16.70;99.90;;;;;;5073578;28;20041;-69
2022/06/06 09:19:08;;;;;;;5.20;2.08;;;17.00;99.90;;;;;;5073446;28;20412;-69
2022/06/06 09:21:55;;;;;;;3.90;1.50;;;17.20;99.90;;;;;;5073961;28;20081;-69
2022/06/06 09:24:58;;;;;;;11.75;2.00;;;17.60;99.90;;;;;;5056939;28;20105;-69
2022/06/06 09:27:29;;;;;;;6.43;1.35;;;17.90;99.90;;;;;;5073252;28;20040;-69
2022/06/06 09:30:23;;;;;;;4.50;1.20;;;18.10;99.90;;;;;;5073187;28;20043;-69
2022/06/06 09:33:23;;;;;;;5.63;1.60;;;17.90;99.90;;;;;;5073039;28;20037;-69
2022/06/06 09:36:09;;;;;;;5.78;1.50;;;17.70;99.90;;;;;;5057364;28;20083;-69
2022/06/06 09:38:47;;;;;;;4.82;1.63;;;17.50;99.90;;;;;;5073275;28;20056;-69
2022/06/06 09:41:38;;;;;;;4.00;1.58;;;17.40;99.90;;;;;;5056438;28;20082;-69
2022/06/06 09:44:32;;;;;;;3.78;1.40;;;17.50;99.90;;;;;;5073071;28;20067;-69
2022/06/06 09:47:07;;;;;;;7.60;1.75;;;17.70;99.90;;;;;;5073089;28;20040;-69
2022/06/06 09:49:44;;;;;;;7.55;2.65;;;17.80;99.90;;;;;;5056229;28;20086;-69
2022/06/06 09:52:32;;;;;;;6.03;2.85;;;17.90;99.90;;;;;;5073189;28;20036;-69
2022/06/06 09:59:03;;;;;;;6.85;2.15;;;17.70;99.90;;;;;;5072653;28;20044;-69
2022/06/06 10:02:06;;;;;;;5.88;2.08;;;17.50;99.90;;;;;;5035229;28;20048;-69
2022/06/06 10:05:05;;;;;;;7.25;2.30;;;17.60;99.90;;;;;;5035128;28;20051;-69
2022/06/06 10:07:49;;;;;;;5.82;1.65;;;18.00;99.90;;;;;;5034731;28;20048;-69
2022/06/06 10:10:42;;;;;;;4.40;2.38;;;18.40;99.90;;;;;;5035368;28;20048;-69
2022/06/06 10:13:36;;;;;;;10.80;2.05;;;18.60;99.90;;;;;;5051758;28;20045;-69
2022/06/06 10:16:26;;;;;;;9.88;2.72;;;18.60;99.90;;;;;;5022223;28;20128;-69
2022/06/06 10:19:25;;;;;;;8.13;1.90;;;18.10;99.90;;;;;;5035145;28;20060;-69
2022/06/06 10:22:12;;;;;;;4.47;1.33;;;17.40;99.90;;;;;;5035107;28;20056;-69
2022/06/06 10:24:52;;;;;;;5.35;1.30;;;16.70;99.90;;;;;;5034858;28;20048;-69
2022/06/06 10:27:42;;;;;;;6.47;1.92;;;16.30;99.90;;;;;;5034701;28;20141;-69
2022/06/06 10:30:20;;;;;;;3.15;1.85;;;16.10;99.90;;;;;;5035362;28;20041;-69
2022/06/06 10:33:02;;;;;;;6.13;2.40;;;16.00;99.90;;;;;;5067108;28;20053;-70
2022/06/06 10:35:39;;;;;;;5.90;2.92;;;16.20;99.90;;;;;;5074737;28;20040;-69
2022/06/06 10:38:10;;;;;;;8.07;2.88;;;16.50;99.90;;;;;;5073011;28;20101;-69
2022/06/06 10:40:48;;;;;;;4.32;2.58;;;17.10;99.90;;;;;;5072096;28;20492;-69
2022/06/06 10:43:38;;;;;;;4.82;2.40;;;17.20;99.90;;;;;;5071875;28;20127;-69
2022/06/06 10:46:24;;;;;;;5.78;2.28;;;17.20;99.90;;;;;;5072303;28;20154;-69
2022/06/06 10:48:55;;;;;;;3.28;1.60;;;17.10;99.90;;;;;;5073253;28;20098;-69
2022/06/06 10:51:41;;;;;;;5.75;2.40;;;17.20;99.90;;;;;;5072006;28;20037;-69
2022/06/06 10:54:37;;;;;;;5.20;1.70;;;17.60;99.90;;;;;;5071966;28;20537;-69
2022/06/06 10:57:22;;;;;;;6.88;1.10;;;17.80;99.90;;;;;;5055167;28;20058;-69
2022/06/06 11:00:03;;;;;;;6.13;1.58;;;17.90;99.90;;;;;;5071905;28;20519;-69
2022/06/06 11:03:03;;;;;;;3.00;1.10;;;17.90;99.90;;;;;;5072234;28;20048;-69
2022/06/06 11:05:47;;;;;;;6.15;1.20;;;17.70;99.90;;;;;;5071826;28;20044;-69
2022/06/06 11:08:18;;;;;;;4.57;1.20;;;17.70;99.90;;;;;;5071531;28;20052;-69
2022/06/06 11:11:17;;;;;;;3.17;1.02;;;17.80;99.90;;;;;;5071774;28;20041;-69
2022/06/06 11:14:03;;;;;;;8.40;1.60;;;18.10;99.90;;;;;;5071977;28;20036;-69
2022/06/06 11:17:07;;;;;;;4.40;1.60;;;18.30;99.90;;;;;;5055847;28;20115;-69
2022/06/06 11:19:56;;;;;;;5.60;1.70;;;18.30;99.90;;;;;;5034807;28;20060;-69
2022/06/06 11:22:34;;;;;;;3.22;1.25;;;18.40;99.90;;;;;;5071841;28;20071;-69
2022/06/06 11:25:15;;;;;;;5.60;1.77;;;18.20;99.90;;;;;;5071815;28;20093;-68
2022/06/06 11:28:14;;;;;;;4.60;1.33;;;18.20;99.90;;;;;;5071386;28;20041;-68
2022/06/06 11:30:50;;;;;;;3.65;1.65;;;18.30;99.90;;;;;;5071779;28;20045;-69
2022/06/06 11:33:53;;;;;;;4.80;1.50;;;18.30;99.90;;;;;;5054833;28;20037;-68
2022/06/06 11:36:53;;;;;;;11.05;1.70;;;18.10;99.90;;;;;;5071480;28;20124;-69
2022/06/06 11:39:46;;;;;;;5.38;1.50;;;18.20;99.90;;;;;;5054818;28;20127;-69
2022/06/06 11:42:44;;;;;;;2.60;1.00;;;18.30;99.90;;;;;;5071492;28;20040;-69
2022/06/06 11:45:31;;;;;;;5.47;1.30;;;18.50;99.90;;;;;;5071389;28;20041;-69
2022/06/06 11:48:24;;;;;;;2.60;1.23;;;18.60;99.90;;;;;;5071233;28;20036;-69
2022/06/06 11:51:42;;;;;;;6.15;1.30;;;18.70;99.90;;;;;;5071370;28;20072;-69
2022/06/06 11:54:45;;;;;;;5.68;1.60;;;18.80;99.90;;;;;;5050338;28;20127;-69
2022/06/06 11:57:51;;;;;;;4.70;1.48;;;19.20;99.90;;;;;;5075277;28;20093;-69
2022/06/06 12:00:31;;;;;;;5.38;1.30;;;19.40;99.90;;;;;;5056151;28;20109;-69
2022/06/06 12:03:26;;;;;;;2.58;0.70;;;19.50;99.90;;;;;;5075282;28;20044;-69
2022/06/06 12:06:26;;;;;;;4.65;0.93;;;19.30;99.90;;;;;;5074912;28;20048;-69
2022/06/06 12:09:11;;;;;;;2.28;0.73;;;19.10;99.90;;;;;;5074653;28;20041;-69
2022/06/06 12:12:00;;;;;;;5.57;0.77;;;19.00;99.90;;;;;;5074824;28;20385;-69
2022/06/06 12:14:48;;;;;;;3.35;0.50;;;18.80;99.90;;;;;;5069204;28;20049;-69
2022/06/06 12:17:41;;;;;;;2.83;0.73;;;18.70;99.90;;;;;;5074662;28;20047;-69
2022/06/06 12:20:16;;;;;;;2.45;0.60;;;18.70;99.90;;;;;;5058036;28;20111;-69
2022/06/06 12:23:18;;;;;;;1.08;0.35;;;18.70;99.90;;;;;;5074905;28;20058;-69
2022/06/06 12:26:30;;;;;;;3.58;0.60;;;18.80;99.90;;;;;;5074604;28;20544;-69
2022/06/06 12:29:21;;;;;;;2.72;0.50;;;18.80;99.90;;;;;;5074442;28;20420;-69
2022/06/06 12:32:25;;;;;;;1.85;0.40;;;18.90;99.90;;;;;;5074474;28;20036;-69
2022/06/06 12:34:51;;;;;;;2.50;0.50;;;19.00;99.90;;;;;;5074687;28;20070;-69
2022/06/06 12:37:26;;;;;;;2.83;0.52;;;18.90;99.90;;;;;;5074547;28;20500;-69
2022/06/06 12:40:04;;;;;;;2.78;0.80;;;18.80;99.90;;;;;;5074580;28;20527;-69
2022/06/06 12:42:51;;;;;;;2.45;0.73;;;18.60;99.90;;;;;;5074276;28;20403;-69
2022/06/06 12:45:28;;;;;;;2.60;0.80;;;18.50;99.90;;;;;;5074236;28;20036;-69
2022/06/06 12:48:12;;;;;;;5.80;1.17;;;18.30;99.90;;;;;;5074075;28;20037;-69
2022/06/06 12:51:01;;;;;;;2.92;0.70;;;18.30;99.90;;;;;;5074415;28;20611;-69
2022/06/06 12:53:33;;;;;;;3.92;1.00;;;18.10;99.90;;;;;;5057373;28;20142;-69
2022/06/06 12:56:37;;;;;;;3.97;0.90;;;18.00;99.90;;;;;;5073929;28;20040;-69
2022/06/06 12:59:18;;;;;;;2.80;0.93;;;17.90;99.90;;;;;;5073966;28;20097;-69
2022/06/06 13:02:08;;;;;;;3.20;0.90;;;17.80;99.90;;;;;;5057255;28;20041;-69
2022/06/06 13:05:17;;;;;;;2.63;0.88;;;17.60;99.90;;;;;;5073799;28;20535;-69
2022/06/06 13:07:50;;;;;;;4.28;0.93;;;17.50;99.90;;;;;;5056804;28;20052;-69
2022/06/06 13:10:29;;;;;;;3.88;0.90;;;17.50;99.90;;;;;;5074042;28;20052;-69
2022/06/06 13:13:31;;;;;;;3.78;1.02;;;17.50;99.90;;;;;;5057078;28;20544;-69
2022/06/06 13:16:21;;;;;;;3.53;0.80;;;17.50;99.90;;;;;;5057198;28;20074;-69
2022/06/06 13:18:55;;;;;;;4.85;1.00;;;17.50;99.90;;;;;;5073637;28;20044;-69
2022/06/06 13:22:00;;;;;;;2.45;0.60;;;17.40;99.90;;;;;;5074065;28;20135;-70
2022/06/06 13:24:59;;;;;;;3.53;0.60;;;17.50;99.90;;;;;;5073753;28;20133;-70
2022/06/06 13:27:31;;;;;;;6.30;0.60;;;17.40;99.90;;;;;;5073284;28;20051;-70
2022/06/06 13:30:19;;;;;;;3.88;0.47;;;17.30;99.90;;;;;;5073393;28;20043;-70
2022/06/06 13:33:04;;;;;;;2.70;0.80;;;17.30;99.90;;;;;;5074903;28;20043;-69
2022/06/06 13:35:57;;;;;;;3.70;0.80;;;17.20;99.90;;;;;;5073259;28;20400;-69
2022/06/06 13:38:40;;;;;;;1.77;0.73;;;17.10;99.90;;;;;;5073185;28;20041;-69
2022/06/06 13:41:47;;;;;;;2.88;0.80;;;17.00;99.90;;;;;;5073166;28;20527;-69
2022/06/06 13:44:36;;;;;;;4.00;1.30;;;16.90;99.90;;;;;;5072634;28;20070;-69
2022/06/06 13:47:33;;;;;;;4.85;1.90;;;16.70;99.90;;;;;;5073108;28;20377;-69
2022/06/06 13:50:21;;;;;;;4.63;2.10;;;16.50;99.90;;;;;;5040982;28;20052;-69
2022/06/06 13:53:02;;;;;;;6.43;2.55;;;16.20;99.90;;;;;;5074120;28;20454;-69
2022/06/06 13:55:37;;;;;;;4.45;2.20;;;16.10;99.90;;;;;;5073103;28;20044;-69
2022/06/06 13:58:28;;;;;;;5.55;1.80;;;16.00;99.90;;;;;;5072759;28;20040;-69
2022/06/06 14:01:10;;;;;;;6.78;2.20;;;15.90;99.90;;;;;;5074560;28;20036;-69
2022/06/06 14:03:54;;;;;;;6.38;2.20;;;15.80;99.90;;;;;;5072715;28;20079;-69
2022/06/06 14:06:47;;;;;;;5.00;2.10;;;15.80;99.90;;;;;;5072631;28;20497;-69
2022/06/06 14:09:17;;;;;;;5.15;2.25;;;15.80;99.90;;;;;;5072540;28;20131;-69